Time;durP1;ratioP1;P1;durP2;ratioP2;P2;SDS_P1;SDS_P2;PMS_P1;PMS_P2;Temp;Humidity;BMP_temperature;BMP_pressure;BME280_temperature;BME280_humidity;BME280_pressure;Samples;Min_cycle;Max_cycle;Signal;HPM_P1;HPM_P2
2022/03/17 00:00:07;;;;;;;16.00;3.45;;;;;;;;;;5035053;28;20056;-63
2022/03/17 00:02:33;;;;;;;12.32;3.53;;;;;;;;;;5035162;28;20028;-63
2022/03/17 00:04:59;;;;;;;19.67;5.30;;;;;;;;;;5034704;28;20033;-63
2022/03/17 00:07:25;;;;;;;16.80;3.05;;;;;;;;;;5035149;28;20037;-64
2022/03/17 00:09:52;;;;;;;13.32;3.78;;;;;;;;;;5033841;28;20517;-64
2022/03/17 00:12:19;;;;;;;21.73;3.40;;;;;;;;;;5034991;28;20512;-63
2022/03/17 00:14:45;;;;;;;12.23;3.22;;;;;;;;;;5035126;28;20048;-64
2022/03/17 00:17:12;;;;;;;12.00;3.42;;;;;;;;;;5035158;28;20070;-63
2022/03/17 00:19:38;;;;;;;12.70;3.58;;;;;;;;;;5034688;28;20021;-63
2022/03/17 00:22:08;;;;;;;19.05;3.67;;;;;;;;;;5034838;28;20029;-63
2022/03/17 00:24:37;;;;;;;13.82;4.82;;;;;;;;;;5034126;28;20060;-63
2022/03/17 00:27:08;;;;;;;20.17;3.42;;;;;;;;;;5034591;28;20044;-63
2022/03/17 00:29:38;;;;;;;12.65;3.05;;;;;;;;;;5034995;28;20357;-64
2022/03/17 00:32:05;;;;;;;11.02;3.53;;;;;;;;;;5034714;28;20029;-63
2022/03/17 00:34:31;;;;;;;14.05;3.38;;;;;;;;;;5034118;28;20033;-64
2022/03/17 00:36:57;;;;;;;18.27;2.92;;;;;;;;;;5033014;28;20022;-63
2022/03/17 00:39:25;;;;;;;13.90;2.80;;;;;;;;;;5034647;28;20100;-63
2022/03/17 00:41:51;;;;;;;16.17;2.95;;;;;;;;;;5034342;28;20477;-63
2022/03/17 00:44:17;;;;;;;15.32;3.47;;;;;;;;;;5034480;28;20052;-63
2022/03/17 00:46:44;;;;;;;16.02;2.53;;;;;;;;;;5034618;28;20022;-64
2022/03/17 00:49:12;;;;;;;15.35;2.63;;;;;;;;;;5033861;28;20045;-63
2022/03/17 00:51:38;;;;;;;13.23;2.83;;;;;;;;;;5034354;28;20034;-64
2022/03/17 00:54:04;;;;;;;6.20;2.20;;;;;;;;;;5034249;28;20018;-63
2022/03/17 00:56:30;;;;;;;20.85;2.80;;;;;;;;;;5034391;28;20087;-63
2022/03/17 00:58:56;;;;;;;15.80;2.67;;;;;;;;;;5033995;28;20026;-63
2022/03/17 01:01:22;;;;;;;17.30;3.00;;;;;;;;;;5034086;28;20526;-63
2022/03/17 01:03:49;;;;;;;17.30;2.60;;;;;;;;;;5033945;28;20100;-63
2022/03/17 01:06:15;;;;;;;11.50;2.50;;;;;;;;;;5034201;28;20116;-63
2022/03/17 01:08:41;;;;;;;22.17;2.85;;;;;;;;;;5034102;28;20044;-64
2022/03/17 01:11:08;;;;;;;10.13;2.22;;;;;;;;;;5033492;28;20179;-63
2022/03/17 01:13:34;;;;;;;14.85;2.42;;;;;;;;;;5034146;28;20037;-63
2022/03/17 01:16:00;;;;;;;18.80;6.75;;;;;;;;;;5033098;28;20029;-64
2022/03/17 01:18:26;;;;;;;19.55;3.17;;;;;;;;;;5033392;28;20037;-63
2022/03/17 01:20:52;;;;;;;13.73;2.30;;;;;;;;;;5033813;28;20036;-63
2022/03/17 01:23:18;;;;;;;9.45;2.20;;;;;;;;;;5033022;28;20056;-63
2022/03/17 01:25:45;;;;;;;16.45;2.15;;;;;;;;;;5033967;28;20036;-63
2022/03/17 01:28:11;;;;;;;14.38;2.30;;;;;;;;;;5033655;28;20393;-64
2022/03/17 01:30:37;;;;;;;15.15;3.00;;;;;;;;;;5033402;28;20056;-63
2022/03/17 01:33:04;;;;;;;8.82;3.55;;;;;;;;;;5033076;28;20049;-63
2022/03/17 01:35:30;;;;;;;12.57;2.38;;;;;;;;;;5032670;28;20083;-63
2022/03/17 01:37:56;;;;;;;15.35;2.92;;;;;;;;;;5033366;28;20068;-63
2022/03/17 01:40:23;;;;;;;11.15;2.83;;;;;;;;;;5033392;28;20029;-63
2022/03/17 01:42:49;;;;;;;10.50;2.13;;;;;;;;;;5033405;28;20037;-63
2022/03/17 01:45:16;;;;;;;14.38;3.03;;;;;;;;;;5032798;28;20036;-63
2022/03/17 01:47:44;;;;;;;19.05;1.98;;;;;;;;;;5032917;28;20044;-63
2022/03/17 01:50:12;;;;;;;12.90;2.80;;;;;;;;;;5032824;28;20133;-63
2022/03/17 01:52:39;;;;;;;16.52;2.97;;;;;;;;;;5032870;28;20029;-64
2022/03/17 01:55:05;;;;;;;22.08;2.45;;;;;;;;;;5032859;28;20041;-63
2022/03/17 01:57:32;;;;;;;6.20;1.83;;;;;;;;;;5033196;28;20029;-63
2022/03/17 01:59:59;;;;;;;11.52;2.05;;;;;;;;;;5033335;28;20051;-63
2022/03/17 02:02:25;;;;;;;11.88;2.10;;;;;;;;;;5032899;28;20025;-64
2022/03/17 02:04:52;;;;;;;12.93;1.88;;;;;;;;;;5033041;28;20033;-64
2022/03/17 02:07:19;;;;;;;20.02;3.67;;;;;;;;;;5032538;28;20029;-64
2022/03/17 02:09:48;;;;;;;12.30;2.40;;;;;;;;;;5032689;28;20036;-63
2022/03/17 02:15:06;;;;;;;11.15;2.17;;;;;;;;;;5032447;28;20950;-63
2022/03/17 02:17:35;;;;;;;20.25;2.25;;;;;;;;;;5017353;28;20116;-63
2022/03/17 02:20:02;;;;;;;14.23;2.63;;;;;;;;;;5032794;28;20024;-64
2022/03/17 02:22:29;;;;;;;16.33;3.38;;;;;;;;;;5032478;28;20033;-64
2022/03/17 02:27:45;;;;;;;10.98;2.50;;;;;;;;;;5023022;28;20127;-64
2022/03/17 02:30:12;;;;;;;16.77;3.15;;;;;;;;;;5032329;28;20025;-64
2022/03/17 02:32:39;;;;;;;14.43;2.17;;;;;;;;;;5032696;28;20044;-63
2022/03/17 02:35:09;;;;;;;21.92;3.25;;;;;;;;;;5032268;28;20083;-63
2022/03/17 02:37:35;;;;;;;11.43;2.42;;;;;;;;;;5032789;28;20481;-63
2022/03/17 02:40:04;;;;;;;12.77;2.45;;;;;;;;;;5032537;28;20531;-63
2022/03/17 02:42:30;;;;;;;11.48;2.97;;;;;;;;;;5032554;28;20044;-63
2022/03/17 02:44:58;;;;;;;12.75;2.83;;;;;;;;;;5032347;28;20120;-63
2022/03/17 02:47:24;;;;;;;10.05;2.10;;;;;;;;;;5031681;28;20042;-63
2022/03/17 02:49:52;;;;;;;22.52;2.38;;;;;;;;;;5032459;28;20036;-63
2022/03/17 02:52:19;;;;;;;17.40;2.20;;;;;;;;;;5032395;28;20040;-63
2022/03/17 02:54:45;;;;;;;13.27;2.63;;;;;;;;;;5032439;28;20144;-63
2022/03/17 02:57:11;;;;;;;11.70;2.42;;;;;;;;;;5031792;28;20026;-63
2022/03/17 02:59:37;;;;;;;13.10;1.88;;;;;;;;;;5033097;28;20730;-64
2022/03/17 03:02:04;;;;;;;12.48;3.33;;;;;;;;;;5036598;28;20117;-63
2022/03/17 03:04:33;;;;;;;6.72;1.55;;;;;;;;;;5036507;28;20053;-64
2022/03/17 03:07:00;;;;;;;10.82;3.42;;;;;;;;;;5036271;28;20492;-63
2022/03/17 03:09:26;;;;;;;6.68;1.65;;;;;;;;;;5035660;28;20021;-63
2022/03/17 03:11:53;;;;;;;12.15;2.22;;;;;;;;;;5036215;28;20026;-63
2022/03/17 03:14:19;;;;;;;12.80;2.15;;;;;;;;;;5035891;28;20032;-63
2022/03/17 03:16:46;;;;;;;7.63;2.50;;;;;;;;;;5035535;28;20037;-64
2022/03/17 03:19:12;;;;;;;8.05;2.00;;;;;;;;;;5035373;28;20037;-63
2022/03/17 03:21:38;;;;;;;11.75;1.83;;;;;;;;;;5036218;28;20026;-63
2022/03/17 03:24:04;;;;;;;11.60;1.90;;;;;;;;;;5035735;28;20049;-63
2022/03/17 03:26:30;;;;;;;10.32;1.80;;;;;;;;;;5035478;28;20491;-63
2022/03/17 03:28:57;;;;;;;7.05;1.80;;;;;;;;;;5035626;28;20108;-63
2022/03/17 03:31:23;;;;;;;4.68;1.25;;;;;;;;;;5035694;28;20080;-63
2022/03/17 03:33:50;;;;;;;14.70;2.10;;;;;;;;;;5036252;28;20523;-63
2022/03/17 03:39:01;;;;;;;10.10;2.30;;;;;;;;;;5035989;28;20105;-63
2022/03/17 03:41:27;;;;;;;10.77;2.28;;;;;;;;;;5035542;28;20025;-63
2022/03/17 03:43:53;;;;;;;8.05;2.70;;;;;;;;;;5035637;28;20422;-63
2022/03/17 03:46:20;;;;;;;7.10;2.00;;;;;;;;;;5035348;28;20048;-63
2022/03/17 03:48:46;;;;;;;9.80;1.98;;;;;;;;;;5035060;28;20021;-63
2022/03/17 03:51:12;;;;;;;11.95;2.00;;;;;;;;;;5035275;28;20405;-63
2022/03/17 03:56:25;;;;;;;9.88;2.10;;;;;;;;;;5034846;28;20041;-63
2022/03/17 03:58:51;;;;;;;11.43;2.40;;;;;;;;;;5035516;28;20498;-63
2022/03/17 04:01:18;;;;;;;8.98;1.58;;;;;;;;;;5035152;28;20021;-63
2022/03/17 04:03:45;;;;;;;6.50;1.90;;;;;;;;;;5035485;28;20029;-63
2022/03/17 04:06:11;;;;;;;9.88;2.28;;;;;;;;;;5035138;28;20033;-63
2022/03/17 04:08:37;;;;;;;7.68;1.75;;;;;;;;;;5034900;28;20103;-63
2022/03/17 04:11:03;;;;;;;7.60;1.90;;;;;;;;;;5030874;28;20115;-63
2022/03/17 04:13:29;;;;;;;11.45;2.13;;;;;;;;;;5034341;28;20088;-63
2022/03/17 04:15:56;;;;;;;5.50;1.45;;;;;;;;;;5035214;28;20048;-63
2022/03/17 04:18:22;;;;;;;8.32;1.60;;;;;;;;;;5034994;28;20036;-63
2022/03/17 04:20:48;;;;;;;8.05;2.42;;;;;;;;;;5035072;28;20018;-63
2022/03/17 04:23:14;;;;;;;5.90;1.85;;;;;;;;;;5034636;28;20080;-63
2022/03/17 04:25:41;;;;;;;16.83;2.47;;;;;;;;;;5034637;28;20094;-63
2022/03/17 04:28:08;;;;;;;12.27;2.17;;;;;;;;;;5034718;28;20125;-63
2022/03/17 04:30:36;;;;;;;9.32;2.20;;;;;;;;;;5034582;28;20041;-63
2022/03/17 04:33:02;;;;;;;6.72;2.05;;;;;;;;;;5034713;28;20036;-63
2022/03/17 04:35:28;;;;;;;8.25;1.80;;;;;;;;;;5034703;28;20123;-63
2022/03/17 04:37:54;;;;;;;5.70;1.48;;;;;;;;;;5034699;28;20026;-63
2022/03/17 04:40:20;;;;;;;9.23;3.53;;;;;;;;;;5034283;28;20060;-63
2022/03/17 04:42:47;;;;;;;6.07;2.47;;;;;;;;;;5034224;28;20022;-63
2022/03/17 04:45:13;;;;;;;8.43;1.90;;;;;;;;;;5034104;28;20029;-63
2022/03/17 04:47:40;;;;;;;11.07;1.85;;;;;;;;;;5033962;28;20041;-63
2022/03/17 04:50:06;;;;;;;13.98;2.40;;;;;;;;;;5034465;28;20037;-63
2022/03/17 04:55:17;;;;;;;7.45;2.05;;;;;;;;;;5034013;28;20038;-63
2022/03/17 04:57:44;;;;;;;8.52;1.95;;;;;;;;;;5034273;28;20029;-63
2022/03/17 05:00:11;;;;;;;6.53;1.98;;;;;;;;;;5034440;28;20507;-63
2022/03/17 05:02:37;;;;;;;8.20;2.00;;;;;;;;;;5033997;28;20105;-63
2022/03/17 05:05:03;;;;;;;6.05;1.80;;;;;;;;;;5032871;28;20116;-63
2022/03/17 05:07:29;;;;;;;8.75;2.10;;;;;;;;;;5025694;28;20409;-63
2022/03/17 05:09:55;;;;;;;3.00;1.70;;;;;;;;;;5030716;28;20492;-63
2022/03/17 05:12:21;;;;;;;9.18;4.00;;;;;;;;;;5024140;28;20033;-63
2022/03/17 05:14:47;;;;;;;7.80;2.45;;;;;;;;;;5024483;28;20038;-63
2022/03/17 05:17:14;;;;;;;6.60;2.25;;;;;;;;;;5033580;28;20080;-63
2022/03/17 05:19:40;;;;;;;11.80;2.30;;;;;;;;;;5032131;28;20099;-63
2022/03/17 05:22:06;;;;;;;5.03;1.65;;;;;;;;;;5032396;28;20029;-64
2022/03/17 05:24:33;;;;;;;8.00;2.08;;;;;;;;;;5031247;28;20096;-63
2022/03/17 05:27:00;;;;;;;10.55;2.45;;;;;;;;;;5029327;28;20032;-63
2022/03/17 05:29:26;;;;;;;7.35;2.53;;;;;;;;;;5031787;28;20029;-63
2022/03/17 05:31:52;;;;;;;11.15;2.08;;;;;;;;;;5031475;28;20029;-63
2022/03/17 05:34:18;;;;;;;11.02;2.25;;;;;;;;;;5029803;28;20032;-63
2022/03/17 05:36:45;;;;;;;4.30;1.55;;;;;;;;;;5030329;28;20539;-63
2022/03/17 05:39:11;;;;;;;11.07;2.45;;;;;;;;;;5032299;28;20022;-63
2022/03/17 05:41:37;;;;;;;9.85;2.47;;;;;;;;;;5032120;28;20377;-63
2022/03/17 05:44:04;;;;;;;7.70;2.15;;;;;;;;;;5030706;28;20104;-64
2022/03/17 05:46:30;;;;;;;11.45;2.35;;;;;;;;;;5029031;28;20045;-63
2022/03/17 05:48:56;;;;;;;11.57;2.88;;;;;;;;;;5030079;28;20156;-63
2022/03/17 05:51:22;;;;;;;8.13;2.17;;;;;;;;;;5030596;28;20025;-63
2022/03/17 05:53:48;;;;;;;10.50;2.28;;;;;;;;;;5029814;28;20032;-63
2022/03/17 05:56:14;;;;;;;5.75;2.20;;;;;;;;;;5030049;28;20029;-63
2022/03/17 05:58:40;;;;;;;5.15;2.63;;;;;;;;;;5029611;28;20029;-63
2022/03/17 06:01:06;;;;;;;7.68;2.10;;;;;;;;;;5029746;28;20044;-64
2022/03/17 06:03:33;;;;;;;5.88;2.20;;;;;;;;;;5032095;28;20021;-64
2022/03/17 06:06:00;;;;;;;10.73;2.47;;;;;;;;;;5028007;28;20437;-63
2022/03/17 06:08:26;;;;;;;5.78;2.25;;;;;;;;;;5030077;28;20076;-64
2022/03/17 06:10:53;;;;;;;14.98;2.35;;;;;;;;;;5030133;28;20033;-64
2022/03/17 06:13:19;;;;;;;4.85;2.72;;;;;;;;;;5030017;28;20033;-63
2022/03/17 06:15:45;;;;;;;6.13;2.22;;;;;;;;;;5030544;28;20033;-63
2022/03/17 06:18:11;;;;;;;7.00;2.38;;;;;;;;;;5030333;28;20441;-63
2022/03/17 06:20:39;;;;;;;7.30;2.08;;;;;;;;;;5030305;28;20018;-63
2022/03/17 06:23:06;;;;;;;12.75;2.60;;;;;;;;;;5027715;28;20033;-73
2022/03/17 06:25:33;;;;;;;8.10;2.63;;;;;;;;;;5029369;28;20567;-64
2022/03/17 06:27:59;;;;;;;10.98;2.80;;;;;;;;;;5025389;28;20033;-64
2022/03/17 06:30:27;;;;;;;10.88;2.60;;;;;;;;;;5027526;28;20543;-64
2022/03/17 06:32:54;;;;;;;11.32;2.50;;;;;;;;;;5030036;28;20041;-64
2022/03/17 06:35:25;;;;;;;9.07;3.03;;;;;;;;;;5023792;28;20087;-64
2022/03/17 06:37:53;;;;;;;11.52;2.88;;;;;;;;;;5027820;28;20036;-64
2022/03/17 06:40:19;;;;;;;5.80;2.70;;;;;;;;;;5029374;28;20033;-63
2022/03/17 06:42:46;;;;;;;11.95;2.60;;;;;;;;;;5029465;28;20382;-63
2022/03/17 06:45:12;;;;;;;10.88;2.42;;;;;;;;;;5030344;28;20439;-63
2022/03/17 06:47:39;;;;;;;7.15;2.40;;;;;;;;;;5031518;28;20025;-63
2022/03/17 06:50:06;;;;;;;19.55;3.03;;;;;;;;;;5031028;28;20497;-63
2022/03/17 06:52:32;;;;;;;18.15;3.08;;;;;;;;;;5031158;28;20018;-63
2022/03/17 06:54:58;;;;;;;6.05;2.78;;;;;;;;;;5031125;28;20029;-63
2022/03/17 06:57:24;;;;;;;12.88;2.92;;;;;;;;;;5030187;28;20033;-63
2022/03/17 06:59:51;;;;;;;8.10;3.15;;;;;;;;;;5027240;28;20503;-63
2022/03/17 07:02:17;;;;;;;10.45;2.65;;;;;;;;;;5030102;28;20028;-63
2022/03/17 07:04:43;;;;;;;11.63;3.00;;;;;;;;;;5029927;28;20025;-63
2022/03/17 07:07:10;;;;;;;9.18;3.20;;;;;;;;;;5030664;28;20018;-63
2022/03/17 07:09:36;;;;;;;11.10;3.53;;;;;;;;;;5012403;28;20450;-63
2022/03/17 07:12:02;;;;;;;11.35;4.05;;;;;;;;;;5030122;28;20033;-63
2022/03/17 07:14:29;;;;;;;9.82;2.90;;;;;;;;;;5030455;28;20259;-63
2022/03/17 07:16:55;;;;;;;11.45;3.70;;;;;;;;;;5030051;28;20032;-63
2022/03/17 07:19:21;;;;;;;11.20;3.75;;;;;;;;;;5029947;28;20041;-63
2022/03/17 07:21:49;;;;;;;16.88;3.97;;;;;;;;;;5030379;28;20481;-63
2022/03/17 07:24:16;;;;;;;15.80;4.20;;;;;;;;;;5030120;28;20107;-63
2022/03/17 07:26:42;;;;;;;20.33;4.07;;;;;;;;;;5029643;28;20022;-63
2022/03/17 07:29:08;;;;;;;17.45;6.20;;;;;;;;;;5030041;28;20121;-63
2022/03/17 07:31:35;;;;;;;52.47;22.98;;;;;;;;;;5030543;28;20079;-63
2022/03/17 07:34:01;;;;;;;47.15;20.15;;;;;;;;;;5029598;28;20120;-63
2022/03/17 07:36:27;;;;;;;26.00;9.48;;;;;;;;;;5030249;28;20029;-63
2022/03/17 07:38:54;;;;;;;10.15;5.65;;;;;;;;;;5030294;28;20022;-63
2022/03/17 07:41:21;;;;;;;17.75;5.20;;;;;;;;;;5030253;28;20026;-63
2022/03/17 07:43:47;;;;;;;17.80;4.80;;;;;;;;;;5030061;28;20083;-63
2022/03/17 07:46:42;;;;;;;19.42;5.65;;;;;;;;;;5018410;28;20037;-63
2022/03/17 07:49:31;;;;;;;15.43;4.55;;;;;;;;;;5020955;28;20041;-63
2022/03/17 07:51:58;;;;;;;15.38;4.40;;;;;;;;;;5034172;28;20120;-63
2022/03/17 07:54:24;;;;;;;16.13;4.30;;;;;;;;;;5033722;28;20374;-63
2022/03/17 07:56:50;;;;;;;28.33;8.85;;;;;;;;;;5033538;28;20481;-64
2022/03/17 07:59:16;;;;;;;21.67;7.68;;;;;;;;;;5033891;28;20482;-63
2022/03/17 08:01:42;;;;;;;16.98;5.40;;;;;;;;;;5033894;28;20029;-63
2022/03/17 08:04:09;;;;;;;12.05;5.40;;;;;;;;;;5033026;28;20550;-63
2022/03/17 08:06:35;;;;;;;13.32;6.13;;;;;;;;;;5032429;28;20025;-63
2022/03/17 08:09:02;;;;;;;17.88;6.47;;;;;;;;;;5032061;28;20060;-63
2022/03/17 08:11:28;;;;;;;18.02;5.70;;;;;;;;;;5032034;28;20042;-64
2022/03/17 08:13:54;;;;;;;15.13;5.47;;;;;;;;;;5024401;28;20124;-63
2022/03/17 08:16:20;;;;;;;15.13;5.47;;;;;;;;;;5032835;28;20366;-63
2022/03/17 08:18:48;;;;;;;14.40;4.88;;;;;;;;;;5031962;28;20037;-63
2022/03/17 08:21:14;;;;;;;11.30;5.47;;;;;;;;;;5033104;28;20102;-63
2022/03/17 08:23:41;;;;;;;13.85;4.90;;;;;;;;;;5033610;28;20037;-63
2022/03/17 08:26:07;;;;;;;19.38;4.80;;;;;;;;;;5033297;28;20060;-64
2022/03/17 08:28:34;;;;;;;17.60;4.95;;;;;;;;;;5033645;28;20033;-64
2022/03/17 08:31:00;;;;;;;16.63;6.32;;;;;;;;;;5033043;28;20113;-64
2022/03/17 08:33:26;;;;;;;18.50;6.10;;;;;;;;;;5032786;28;20024;-63
2022/03/17 08:35:52;;;;;;;17.05;5.22;;;;;;;;;;5033497;28;20057;-64
2022/03/17 08:38:18;;;;;;;24.98;7.35;;;;;;;;;;5033125;28;20444;-64
2022/03/17 08:40:45;;;;;;;18.67;5.25;;;;;;;;;;5032906;28;20351;-64
2022/03/17 08:43:12;;;;;;;19.60;4.43;;;;;;;;;;5033291;28;20049;-64
2022/03/17 08:51:10;;;;;;;28.70;5.65;;;;;;;;;;5032927;28;20104;-64
2022/03/17 08:53:36;;;;;;;12.60;3.65;;;;;;;;;;5032966;28;20072;-64
2022/03/17 08:56:03;;;;;;;18.30;4.00;;;;;;;;;;5033147;28;20074;-64
2022/03/17 08:58:30;;;;;;;13.60;3.92;;;;;;;;;;5031977;28;20021;-64
2022/03/17 09:00:56;;;;;;;18.42;4.10;;;;;;;;;;5032290;28;20111;-63
2022/03/17 09:03:25;;;;;;;19.48;5.22;;;;;;;;;;5032648;28;20036;-64
2022/03/17 09:05:51;;;;;;;16.65;3.75;;;;;;;;;;5033269;28;20501;-64
2022/03/17 09:08:17;;;;;;;16.85;4.30;;;;;;;;;;5032777;28;20590;-64
2022/03/17 09:10:43;;;;;;;20.23;4.38;;;;;;;;;;5032123;28;20494;-64
2022/03/17 09:13:12;;;;;;;19.85;5.43;;;;;;;;;;5032749;28;20017;-64
2022/03/17 09:15:40;;;;;;;17.33;3.97;;;;;;;;;;5025158;28;20017;-64
2022/03/17 09:18:09;;;;;;;14.43;3.22;;;;;;;;;;5031288;28;20021;-64
2022/03/17 09:20:36;;;;;;;13.05;3.25;;;;;;;;;;5031813;28;20029;-64
2022/03/17 09:23:02;;;;;;;12.20;3.60;;;;;;;;;;5032142;28;20485;-64
2022/03/17 09:25:29;;;;;;;14.45;2.90;;;;;;;;;;5032047;28;20108;-64
2022/03/17 09:27:55;;;;;;;12.82;2.90;;;;;;;;;;5032529;28;20025;-64
2022/03/17 09:30:22;;;;;;;14.60;2.45;;;;;;;;;;5031974;28;20036;-64
2022/03/17 09:32:52;;;;;;;11.23;2.33;;;;;;;;;;5032276;28;20371;-64
2022/03/17 09:35:19;;;;;;;14.52;2.50;;;;;;;;;;5032037;28;20429;-64
2022/03/17 09:37:45;;;;;;;18.92;3.58;;;;;;;;;;5032376;28;20021;-64
2022/03/17 09:40:11;;;;;;;9.98;2.33;;;;;;;;;;5032192;28;20057;-64
2022/03/17 09:42:38;;;;;;;12.07;2.35;;;;;;;;;;5031669;28;20025;-64
2022/03/17 09:45:06;;;;;;;10.98;2.35;;;;;;;;;;5031864;28;20151;-64
2022/03/17 09:47:34;;;;;;;28.13;5.80;;;;;;;;;;5032127;28;20025;-64
2022/03/17 09:50:00;;;;;;;15.23;1.80;;;;;;;;;;5032005;28;20484;-64
2022/03/17 09:52:27;;;;;;;17.77;4.03;;;;;;;;;;5031471;28;20398;-64
2022/03/17 09:54:53;;;;;;;11.85;2.85;;;;;;;;;;5031854;28;20028;-64
2022/03/17 09:57:21;;;;;;;16.85;2.80;;;;;;;;;;5013781;28;20039;-64
2022/03/17 09:59:53;;;;;;;10.77;3.03;;;;;;;;;;5029698;28;20029;-64
2022/03/17 10:02:20;;;;;;;19.15;2.72;;;;;;;;;;5031288;28;20044;-64
2022/03/17 10:04:50;;;;;;;7.18;1.80;;;;;;;;;;5031321;28;20033;-64
2022/03/17 10:07:18;;;;;;;12.70;2.35;;;;;;;;;;5030724;28;20025;-64
2022/03/17 10:09:44;;;;;;;9.50;1.98;;;;;;;;;;5030329;28;20447;-64
2022/03/17 10:12:11;;;;;;;13.07;2.58;;;;;;;;;;5030915;28;20037;-64
2022/03/17 10:14:44;;;;;;;13.80;2.67;;;;;;;;;;5029734;28;20025;-63
2022/03/17 10:17:29;;;;;;;14.05;2.30;;;;;;;;;;5031068;28;20057;-64
2022/03/17 10:20:10;;;;;;;13.40;2.05;;;;;;;;;;5027056;28;20021;-64
2022/03/17 10:22:40;;;;;;;23.42;4.40;;;;;;;;;;5030554;28;20388;-64
2022/03/17 10:25:07;;;;;;;7.90;2.03;;;;;;;;;;5031053;28;20053;-63
2022/03/17 10:27:40;;;;;;;6.72;2.38;;;;;;;;;;5030046;28;20041;-63
2022/03/17 10:30:07;;;;;;;22.20;3.80;;;;;;;;;;5031030;28;20048;-64
2022/03/17 10:32:35;;;;;;;5.30;1.60;;;;;;;;;;5030122;28;20143;-64
2022/03/17 10:35:01;;;;;;;10.80;1.70;;;;;;;;;;5030730;28;20104;-64
2022/03/17 10:37:30;;;;;;;11.50;1.50;;;;;;;;;;5030321;28;20469;-63
2022/03/17 10:40:01;;;;;;;11.80;1.50;;;;;;;;;;5030767;28;20025;-64
2022/03/17 10:42:28;;;;;;;10.27;1.55;;;;;;;;;;5030468;28;20351;-64
2022/03/17 10:44:55;;;;;;;8.90;1.42;;;;;;;;;;5030288;28;20029;-64
2022/03/17 10:47:24;;;;;;;7.78;2.28;;;;;;;;;;5030027;28;20527;-64
2022/03/17 10:50:05;;;;;;;5.30;1.50;;;;;;;;;;5030346;28;20413;-64
2022/03/17 10:52:46;;;;;;;4.97;1.10;;;;;;;;;;5030722;28;20103;-64
2022/03/17 10:55:13;;;;;;;13.95;1.60;;;;;;;;;;5031154;28;20108;-64
2022/03/17 10:57:39;;;;;;;7.90;1.92;;;;;;;;;;5030454;28;20017;-64
2022/03/17 11:00:09;;;;;;;7.65;1.65;;;;;;;;;;5031119;28;20022;-64
2022/03/17 11:02:38;;;;;;;11.43;1.98;;;;;;;;;;5030306;28;20036;-64
2022/03/17 11:05:06;;;;;;;11.15;1.73;;;;;;;;;;5030988;28;20478;-64
2022/03/17 11:07:33;;;;;;;8.20;1.45;;;;;;;;;;5030894;28;20033;-64
2022/03/17 11:10:07;;;;;;;8.25;1.60;;;;;;;;;;5029856;28;20029;-64
2022/03/17 11:12:34;;;;;;;6.45;1.15;;;;;;;;;;5013255;28;20033;-64
2022/03/17 11:15:03;;;;;;;10.48;1.42;;;;;;;;;;5024306;28;20037;-64
2022/03/17 11:17:29;;;;;;;10.90;1.30;;;;;;;;;;5030857;28;20493;-64
2022/03/17 11:19:59;;;;;;;6.93;1.55;;;;;;;;;;5028480;28;20036;-64
2022/03/17 11:22:29;;;;;;;15.00;2.00;;;;;;;;;;5033821;28;20496;-64
2022/03/17 11:25:14;;;;;;;7.70;1.73;;;;;;;;;;5031446;28;20491;-64
2022/03/17 11:27:50;;;;;;;10.85;1.65;;;;;;;;;;5031420;28;20041;-64
2022/03/17 11:30:17;;;;;;;10.30;1.92;;;;;;;;;;5028819;28;20028;-64
2022/03/17 11:32:56;;;;;;;7.18;1.75;;;;;;;;;;5031919;28;20033;-64
2022/03/17 11:35:26;;;;;;;16.75;1.95;;;;;;;;;;5033339;28;20033;-64
2022/03/17 11:38:12;;;;;;;3.33;1.20;;;;;;;;;;5033294;28;20375;-64
2022/03/17 11:40:59;;;;;;;7.55;1.48;;;;;;;;;;5033326;28;20048;-64
2022/03/17 11:43:25;;;;;;;6.63;1.40;;;;;;;;;;5033784;28;20029;-64
2022/03/17 11:46:08;;;;;;;10.70;1.73;;;;;;;;;;5027699;28;20088;-64
2022/03/17 11:48:38;;;;;;;11.18;1.83;;;;;;;;;;5032392;28;20037;-63
2022/03/17 11:51:05;;;;;;;8.43;2.08;;;;;;;;;;5031984;28;20485;-63
2022/03/17 11:53:38;;;;;;;10.27;1.67;;;;;;;;;;5033310;28;20057;-63
2022/03/17 11:56:05;;;;;;;5.68;1.35;;;;;;;;;;5033107;28;20394;-64
2022/03/17 11:58:47;;;;;;;7.25;1.75;;;;;;;;;;5033679;28;20029;-64
2022/03/17 12:01:28;;;;;;;10.80;1.25;;;;;;;;;;5033637;28;20032;-64
2022/03/17 12:03:58;;;;;;;8.07;1.40;;;;;;;;;;5032978;28;20039;-64
2022/03/17 12:06:28;;;;;;;11.27;1.90;;;;;;;;;;5030146;28;20080;-64
2022/03/17 12:08:59;;;;;;;5.63;2.05;;;;;;;;;;5032698;28;20041;-63
2022/03/17 12:11:30;;;;;;;5.53;1.50;;;;;;;;;;5032397;28;20520;-64
2022/03/17 12:14:14;;;;;;;4.57;1.33;;;;;;;;;;5031256;28;20029;-64
2022/03/17 12:16:41;;;;;;;9.80;1.33;;;;;;;;;;5032736;28;20029;-64
2022/03/17 12:19:07;;;;;;;8.10;1.23;;;;;;;;;;5033231;28;20026;-64
2022/03/17 12:21:53;;;;;;;11.43;1.38;;;;;;;;;;5033422;28;20546;-64
2022/03/17 12:24:41;;;;;;;7.43;1.73;;;;;;;;;;5024104;28;20049;-63
2022/03/17 12:27:07;;;;;;;7.25;1.27;;;;;;;;;;5029212;28;20033;-63
2022/03/17 12:29:33;;;;;;;6.00;1.98;;;;;;;;;;5033624;28;20128;-63
2022/03/17 12:32:28;;;;;;;7.70;1.10;;;;;;;;;;5033688;28;20021;-63
2022/03/17 12:34:56;;;;;;;7.00;0.98;;;;;;;;;;5005689;28;20133;-63
2022/03/17 12:37:23;;;;;;;7.50;1.42;;;;;;;;;;5033608;28;20025;-63
2022/03/17 12:39:50;;;;;;;6.03;1.23;;;;;;;;;;5033390;28;20060;-63
2022/03/17 12:42:18;;;;;;;4.65;1.52;;;;;;;;;;5033950;28;20033;-63
2022/03/17 12:45:04;;;;;;;8.65;1.50;;;;;;;;;;5034018;28;20080;-63
2022/03/17 12:47:31;;;;;;;7.43;1.42;;;;;;;;;;5027086;28;20096;-63
2022/03/17 12:49:58;;;;;;;10.45;1.50;;;;;;;;;;5033672;28;20022;-63
2022/03/17 12:52:25;;;;;;;8.68;1.65;;;;;;;;;;5024966;28;20025;-63
2022/03/17 12:54:53;;;;;;;4.18;1.25;;;;;;;;;;5033287;28;20477;-63
2022/03/17 12:57:19;;;;;;;8.38;1.40;;;;;;;;;;5033303;28;20075;-63
2022/03/17 12:59:46;;;;;;;9.80;1.77;;;;;;;;;;5033999;28;20461;-63
2022/03/17 13:02:16;;;;;;;9.52;1.25;;;;;;;;;;5033187;28;20030;-63
2022/03/17 13:04:43;;;;;;;4.85;1.15;;;;;;;;;;5033202;28;20030;-63
2022/03/17 13:07:14;;;;;;;6.70;1.15;;;;;;;;;;5033719;28;20053;-63
2022/03/17 13:09:40;;;;;;;3.08;0.85;;;;;;;;;;5033475;28;20038;-63
2022/03/17 13:14:53;;;;;;;5.28;1.35;;;;;;;;;;5033183;28;20394;-63
2022/03/17 13:17:36;;;;;;;5.65;1.05;;;;;;;;;;5033110;28;20100;-63
2022/03/17 13:20:08;;;;;;;5.03;1.00;;;;;;;;;;5032992;28;20036;-63
2022/03/17 13:22:39;;;;;;;9.43;2.08;;;;;;;;;;5032603;28;20048;-63
2022/03/17 13:25:06;;;;;;;8.50;1.35;;;;;;;;;;5032988;28;20543;-63
2022/03/17 13:27:32;;;;;;;4.00;0.80;;;;;;;;;;5032873;28;20087;-63
2022/03/17 13:30:02;;;;;;;8.35;1.10;;;;;;;;;;5032991;28;20109;-63
2022/03/17 13:32:28;;;;;;;10.40;1.92;;;;;;;;;;5032855;28;20489;-63
2022/03/17 13:34:58;;;;;;;1.98;0.70;;;;;;;;;;5032855;28;20108;-63
2022/03/17 13:37:39;;;;;;;7.72;1.17;;;;;;;;;;5032377;28;20481;-63
2022/03/17 13:40:07;;;;;;;3.58;0.50;;;;;;;;;;5032747;28;20040;-63
2022/03/17 13:42:33;;;;;;;4.95;1.13;;;;;;;;;;5032276;28;20013;-63
2022/03/17 13:45:00;;;;;;;8.75;1.55;;;;;;;;;;5032499;28;20032;-63
2022/03/17 13:47:30;;;;;;;7.70;1.65;;;;;;;;;;5032645;28;20108;-63
2022/03/17 13:50:08;;;;;;;6.03;0.80;;;;;;;;;;5032857;28;20389;-63
2022/03/17 13:52:35;;;;;;;5.18;0.98;;;;;;;;;;5032030;28;20033;-63
2022/03/17 13:55:01;;;;;;;8.63;1.13;;;;;;;;;;5032436;28;20083;-63
2022/03/17 13:57:27;;;;;;;10.30;1.00;;;;;;;;;;5032417;28;20033;-63
2022/03/17 13:59:53;;;;;;;9.13;1.75;;;;;;;;;;5032641;28;20030;-63
2022/03/17 14:02:22;;;;;;;5.35;0.80;;;;;;;;;;5032075;28;20028;-63
2022/03/17 14:04:55;;;;;;;5.72;1.00;;;;;;;;;;5032439;28;20378;-63
2022/03/17 14:07:21;;;;;;;4.43;0.80;;;;;;;;;;5032163;28;20413;-63
2022/03/17 14:09:48;;;;;;;7.13;1.10;;;;;;;;;;5032529;28;20025;-63
2022/03/17 14:12:14;;;;;;;5.32;1.05;;;;;;;;;;5032093;28;20037;-63
2022/03/17 14:14:40;;;;;;;5.60;1.38;;;;;;;;;;5032031;28;20095;-63
2022/03/17 14:17:10;;;;;;;6.55;1.10;;;;;;;;;;5032487;28;20029;-63
2022/03/17 14:19:36;;;;;;;3.67;1.02;;;;;;;;;;5024504;28;20064;-63
2022/03/17 14:24:47;;;;;;;8.10;2.30;;;;;;;;;;5031800;28;20052;-63
2022/03/17 14:27:13;;;;;;;2.60;1.13;;;;;;;;;;5031924;28;20037;-63
2022/03/17 14:29:39;;;;;;;7.93;0.90;;;;;;;;;;5031835;28;20025;-63
2022/03/17 14:32:06;;;;;;;5.90;0.70;;;;;;;;;;5032086;28;20102;-63
2022/03/17 14:34:32;;;;;;;5.28;1.10;;;;;;;;;;5031377;28;20034;-63
2022/03/17 14:36:58;;;;;;;6.55;1.17;;;;;;;;;;5031702;28;20040;-63
2022/03/17 14:39:24;;;;;;;4.93;1.30;;;;;;;;;;5031839;28;20045;-63
2022/03/17 14:41:52;;;;;;;11.80;1.48;;;;;;;;;;5032100;28;20052;-63
2022/03/17 14:44:18;;;;;;;6.80;1.70;;;;;;;;;;5031596;28;20029;-63
2022/03/17 14:46:44;;;;;;;3.70;1.00;;;;;;;;;;5031687;28;20107;-63
2022/03/17 14:49:11;;;;;;;3.03;0.98;;;;;;;;;;5031756;28;20513;-63
2022/03/17 14:51:38;;;;;;;7.82;1.30;;;;;;;;;;5031703;28;20029;-63
2022/03/17 14:54:05;;;;;;;3.50;1.00;;;;;;;;;;5031643;28;20033;-63
2022/03/17 14:56:32;;;;;;;6.22;1.10;;;;;;;;;;5030953;28;20128;-63
2022/03/17 14:58:58;;;;;;;4.70;1.25;;;;;;;;;;5032112;28;20071;-63
2022/03/17 15:01:24;;;;;;;6.05;1.05;;;;;;;;;;5031845;28;20045;-63
2022/03/17 15:03:51;;;;;;;2.75;1.10;;;;;;;;;;5031281;28;20029;-63